This site, now in its 22nd season, is a labour of love and fun from one of Ottawa's most avid time trialists and number crunchers. It adheres to and is permitted by the laws of Canada, promotes the objectives of every bicycle club whose results are shown, and is donated free of charge by myself for your enjoyment and usage. If you would like results from series you ride in to be shown here, give me (celia@drmath.ca) a shout!
NOTE that this site had to be quickly moved to a new server with a new version of Perl. Unfortunately the way of interacting with the web form has changed, so I'll have to do some reprogramming to get the buttons and search boxes working. Meanwhile the links work fine and you can always add query specifications into the URL! :-)


Index Page
ATT OTT WTT AATT CFCTT VVVTT
Help resultformat:
Case-sensitive

OBC Open TT Series - 2016-Jun-16 - 15km (Rockliffe Pkwy) (EvtFactor = 0.9272)

Ottawa Weather (18:00): Mainly Sunny. Temperature: 28.0C, Wind: NNE 14km/h, Relative humidity: 25%, Dew point: 6C, Pressure: 100.9kPa, Visibility: 24km.
Ottawa Weather (19:00): Mainly Sunny. Temperature: 27.2C, Wind: NNE 23km/h, Relative humidity: 27%, Dew point: 7C, Pressure: 100.9kPa, Visibility: 24km.
Ottawa Weather (20:00): Mainly Sunny. Temperature: 26.0C, Wind: N 18 gust 28km/h, Relative humidity: 26%, Dew point: 5C, Pressure: 101.0kPa, Visibility: 24km.

Thanks go to Sofia Canning for taking pictures at the start and finish. Many thanks as well to the wonderful volunteers who run this event.

Nice and warm but with some pretty good gusts from the North East - and lots of car traffic (which impeded many at the turnaround). There was a new women's course record set tonight by Karol-Ann Canuel - 19:25! - good for 3rd place overall behind a first place tie of Marc Brazeau and Warren MacDonald at 19:16.

These results were first posted on the OBC web site circa 22:30 on 2016-Jun-16 and are available here for your added pleasure and analysis.

 
 

BESTS?
 
1 Brazeau, Marc RDO 19:16 46.713 1/67 U50M 1/16 1.0582
A 2 Canuel, Karol-Ann BD 19:25 46.352 2/67 U30F 1/2 1.0551
3 MacDonald, Warren  NTF 19:33 46.036 3/67 U50M 2/16  
4 Diaz, Rodrigo  OBC/EUR 19:54 45.226 4/67 U40M 1/9 1.0000
5 Toelke, Joachim EUR 20:12 44.554 5/67 U50M 3/16 1.0528
6 Datars, Paul  OBC/RWR 20:15 44.444 6/67 U60M 1/11 1.0198
Miles, Carson OBC 20:15 44.444 6/67 U17M 1/1 0.9975
8 Katz, Joel  OBC/RWR 20:17 44.371 8/67 U70M 1/7 1.0273
9 Pritchard, Bayden IND 20:22 44.190 9/67 U40M 2/9 1.0148
10 Sherboneau, Mark RWR 20:36 43.689 10/67 U40M 3/9 1.0746
11 Burge, Craig  CYC 20:40 43.548 11/67 U60M 2/11 1.0743
12 Lafleur, Guillaume ECG 20:50 43.200 12/67 U30M 1/8 0.9691
Lavoie, Marcel  WQW 20:50 43.200 12/67 U50M 4/16 0.9597
14 Lagueux, Frederic RPO 20:56 42.994 14/67 U50M 5/16 0.9717
15 Tremblay-Gravel, Mathieu IND 20:58 42.925 15/67 U30M 2/8 1.0337
16 Massie, Antoine IND 21:01 42.823 16/67 U30M 3/8 1.0385
17 Robitaille, Brian  OBC/FC 21:15 42.353 17/67 U60M 3/11 1.0237
18 St-Pierre, Martin ECG 21:17 42.287 18/67 U50M 6/16  
19 Carrier, Damien ECG 21:21 42.155 19/67 U50M 7/16 1.0646
20 Labonte, Philippe OBC 21:30 41.860 20/67 U30M 4/8 0.9746
21 Martel, Laurent RPO 21:32 41.796 21/67 U50M 8/16 1.0689
22 Dunbrack, Jeffrey OBC 21:36 41.667 22/67 U40M 4/9  
23 Page, Graham OBC/NTF 21:50 41.221 23/67 U40M 5/9 1.0371
24 Padilla, Alberto RDO 21:58 40.971 24/67 U60M 4/11 1.0392
25 Charlton, Christopher OBC 22:02 40.847 25/67 U70M 2/7 0.9887
Hulme, Simon OBC 22:02 40.847 25/67 U50M 9/16  
27 Angeles, Robyn  IND 22:03 40.816 27/67 U60F 1/1 0.9819
28 Moon, Clay OBC 22:08 40.663 28/67 U19M 1/1 1.1344
29 Mullington, Chris WQW 22:11 40.571 29/67 U60M 5/11 0.9799
30 Smeulders, Paul IND 22:19 40.329 30/67 U60M 6/11 1.0204
31 Reid, Chris  CYC 22:21 40.268 31/67 U40M 6/9  
32 Martin, David OBC 22:22 40.238 32/67 U50M 10/16 1.0662
33 Le-Lieu, Martin OBC 22:39 39.735 33/67 U40M 7/9 0.9934
34 DeVidi, Robert  OBC 22:41 39.677 34/67 U60M 7/11 0.9311
35 Christie, Greg  OBC/RWR 22:52 39.359 35/67 U70M 3/7 0.9891
36 Drouin, Marcel OBC 22:54 39.301 36/67 U60M 8/11 1.0175
37 Canning, Jim 613 22:58 39.187 37/67 U50M 11/16 1.0397
38 Trepanier, Mathieu OBC 22:59 39.159 38/67 U50M 12/16 0.9870
39 Hicks, Bob  OBC 23:11 38.821 39/67 U80M 1/6 1.0639
Wright, David EUR 23:11 38.821 39/67 U50M 13/16 0.9429
41 Clarke, Shawn SRC/CYC 23:16 38.682 41/67 U40M 8/9 0.9660
42 Guignard, Christian OBC 23:19 38.599 42/67 U70M 4/7 1.0725
43 Prieur, Layla EUR 23:21 38.544 43/67 U50F 1/3 1.0151
44 Deschamps, Martin WQW 23:31 38.271 44/67 U50M 14/16 1.0021
45 Morvan, Jacques  OBC 23:39 38.055 45/67 U80M 2/6 1.0582
46 Gibson, Scott OBC 23:40 38.028 46/67 U50M 15/16  
47 Brügger, Marcel RWR 23:41 38.001 47/67 U60M 9/11 0.9686
48 Déry, Nicolas  OBC 23:46 37.868 48/67 U50M 16/16 0.9362
49 Corpuz, John OBC 23:59 37.526 49/67 U30M 5/8 1.0338
50 Christie, Adrian RWR 24:00 37.500 50/67 U30M 6/8 1.0945
51 Gustyn, Andrew EUR 24:03 37.422 51/67 U60M 10/11 1.1009
Moerman, Bram  OBC 24:03 37.422 51/67 U80M 3/6 1.0000
Y 53 Gibson, Julia OBC 24:10 37.241 53/67 U17F 1/1  
54 Comtois Lecocq, Alex OBC 24:25 36.860 54/67 U40M 9/9 1.0185
55 Messier, Jill WQW 24:33 36.660 55/67 U30F 2/2 0.8864
56 Lafleur, Antoine ECG 24:48 36.290 56/67 U30M 7/8 0.9484
57 Mercier, Nelson  EUR 24:52 36.193 57/67 U60M 11/11  
58 Bédard-Hinz, Brigid OBC 25:18 35.573 58/67 U50F 2/3  
59 Appotive, Eric FC 25:21 35.503 59/67 U70M 5/7 1.0019
60 Mijal, Vello OBC 25:39 35.088 60/67 U80M 4/6 1.0157
61 Balint, John OBC 25:42 35.019 61/67 U80M 5/6 1.0922
62 Nadler, Steven OBC 25:52 34.794 62/67 U70M 6/7  
63 Zuiderveen, Thomas OBC 25:54 34.749 63/67 U30M 8/8 1.0490
64 Dobbs, Brian OBC 26:27 34.026 64/67 U70M 7/7 0.9793
65 McInnis, Celia  OBC/ABC 27:01 33.313 65/67 U70F 1/1 0.9190
66 Barber, Graeme OBC 27:38 32.569 66/67 U80M 6/6 1.0990
67 McLaren, Louise  OBC 29:38 30.371 67/67 U50F 3/3 0.9453
 
Average Speed of all of the above 67 finishes (1005km in 25:30:08):39.408
>>>Average of the Average Speeds for these 67 finishes39.729<<<
 

The number of data records shown above is 67
The server processing of your query took: 1 wallclock secs ( 0.04 usr + 0.00 sys = 0.04 CPU)

Thanks to our Helpers: John Kinos, Alex McKnight, Jess Raymond, Stephanie Rees, Peter Tregunno.

     


Mar 25 (Good Friday - cancelled)
May 3 (10km) May 5 May 10 May 10 (10km) May 12 May 17 May 17 (10km) May 19 May 24 May 24 (10km) May 26 May 31 May 31 (10km)
Jun 2 Jun 5 (40km) Jun 7 Jun 7 Jun 9 Jun 14 Jun 14
  Jun 16  
Jun 21 Jun 21 Jun 23 Jun 28 Jun 28 Jun 30
Jul 3 (40km) Jul 5 Jul 5 Jul 7 Jul 12 Jul 12 Jul 14 Jul 19 Jul 19 Jul 21 Jul 26 Jul 26 Jul 28
Aug 2 Aug 2 Aug 4 Aug 7 (40km) Aug 9 Aug 9 Aug 11 Aug 16 (canceled) Aug 16 (canceled) Aug 18 Aug 23 Aug 23 Aug 25 Aug 30 Aug 30 (Invitational)
Sep 1 Sep 4 (40km) Sep 6 Sep 8 Sep 13 Sep 20

WTT Rankings for All Participants
4 Best Speeds (≥4 WTT, ≤1 10km)     4 Best Speeds (≥4 WTT, ≤1 10km) by category
OTT Best Three 15km Rankings
Overall     by category     age-Hcap Female   age-Hcap Male
[OWA]TT BAR Ranking
Overall     by category     Rider "Consistency-Graph"
ABC BAR Ranking
Overall     by category     Rider "Consistency-Graph"
Other years
TT Calculator All TT People All TT events
ABC Home VVV Home
CKAP GOLD MEDAL
Other Links

Please send your comments and suggestions to: Celia McInnis
Copyright © 1998-2021 Celia McInnis. All rights reserved. Links are welcomed.